createdAt,value
2023-01-15T00:01:06.070Z,4.45
2023-01-15T00:03:50.404Z,4.63
2023-01-15T00:06:20.177Z,4.18
2023-01-15T00:08:49.919Z,4.18
2023-01-15T00:11:18.958Z,4.00
2023-01-15T00:13:48.920Z,3.78
2023-01-15T00:16:21.765Z,3.80
2023-01-15T00:18:56.072Z,4.10
2023-01-15T00:22:15.379Z,4.18
2023-01-15T00:25:55.022Z,3.92
2023-01-15T00:28:23.242Z,4.30
2023-01-15T00:30:52.071Z,3.95
2023-01-15T00:33:20.357Z,3.92
2023-01-15T00:35:50.412Z,3.47
2023-01-15T00:38:18.695Z,4.22
2023-01-15T00:40:52.936Z,3.70
2023-01-15T00:43:22.113Z,3.22
2023-01-15T00:45:56.447Z,3.42
2023-01-15T00:48:24.945Z,3.72
2023-01-15T00:50:53.671Z,2.83
2023-01-15T00:53:22.192Z,3.80
2023-01-15T00:55:50.766Z,3.03
2023-01-15T00:58:19.141Z,2.67
2023-01-15T01:00:47.922Z,3.33
2023-01-15T01:03:17.088Z,3.20
2023-01-15T01:05:45.658Z,3.50
2023-01-15T01:08:16.116Z,3.15
2023-01-15T01:10:47.269Z,2.78
2023-01-15T01:13:15.535Z,2.88
2023-01-15T01:15:44.142Z,3.30
2023-01-15T01:18:13.309Z,3.10
2023-01-15T01:20:41.858Z,3.40
2023-01-15T01:23:11.075Z,2.92
2023-01-15T01:25:39.664Z,2.92
2023-01-15T01:28:07.861Z,2.92
2023-01-15T01:30:38.895Z,3.50
2023-01-15T01:33:07.478Z,3.15
2023-01-15T01:35:36.004Z,2.35
2023-01-15T01:38:04.337Z,3.20
2023-01-15T01:40:33.025Z,3.53
2023-01-15T01:43:01.267Z,3.00
2023-01-15T01:45:32.771Z,3.05
2023-01-15T01:48:07.160Z,2.90
2023-01-15T01:50:39.426Z,2.80
2023-01-15T01:53:12.952Z,2.88
2023-01-15T01:55:43.272Z,2.70
2023-01-15T01:58:13.979Z,2.15
2023-01-15T02:00:47.016Z,2.40
2023-01-15T02:03:20.243Z,2.60
2023-01-15T02:05:58.607Z,2.88
2023-01-15T02:08:28.999Z,2.70
2023-01-15T02:10:57.625Z,2.72
2023-01-15T02:14:02.599Z,2.90
2023-01-15T02:16:46.615Z,2.50
2023-01-15T02:19:45.611Z,2.50
2023-01-15T02:22:16.209Z,2.72
2023-01-15T02:24:58.469Z,3.05
2023-01-15T02:27:28.180Z,2.53
2023-01-15T02:30:16.943Z,2.65
2023-01-15T02:33:21.480Z,2.97
2023-01-15T02:36:01.027Z,2.55
2023-01-15T02:38:38.136Z,2.45
2023-01-15T02:41:16.338Z,2.22
2023-01-15T02:43:53.299Z,2.70
2023-01-15T02:46:29.807Z,2.50
2023-01-15T02:49:02.344Z,2.63
2023-01-15T02:51:41.799Z,2.30
2023-01-15T02:54:18.533Z,2.47
2023-01-15T02:56:48.697Z,2.50
2023-01-15T02:59:28.877Z,2.08
2023-01-15T03:02:03.300Z,2.60
2023-01-15T03:04:38.290Z,2.40
2023-01-15T03:07:27.537Z,2.92
2023-01-15T03:09:58.405Z,2.67
2023-01-15T03:12:34.057Z,2.10
2023-01-15T03:15:42.088Z,2.53
2023-01-15T03:18:13.511Z,2.17
2023-01-15T03:20:52.462Z,2.67
2023-01-15T03:23:25.515Z,2.40
2023-01-15T03:25:56.649Z,2.70
2023-01-15T03:28:29.491Z,2.45
2023-01-15T03:30:59.391Z,2.35
2023-01-15T03:33:30.058Z,2.17
2023-01-15T03:36:01.103Z,2.20
2023-01-15T03:38:40.661Z,2.50
2023-01-15T03:41:19.636Z,2.13
2023-01-15T03:44:03.193Z,2.20
2023-01-15T03:46:35.967Z,2.30
2023-01-15T03:49:07.451Z,2.03
2023-01-15T03:51:43.272Z,2.38
2023-01-15T03:54:23.564Z,2.15
2023-01-15T03:56:59.405Z,1.95
2023-01-15T03:59:39.832Z,1.55
2023-01-15T04:02:13.551Z,2.22
2023-01-15T04:04:44.425Z,1.77
2023-01-15T04:07:13.272Z,1.98
2023-01-15T04:09:42.159Z,2.10
2023-01-15T04:12:13.024Z,1.77
2023-01-15T04:14:45.833Z,1.90
2023-01-15T04:17:19.334Z,2.00
2023-01-15T04:19:47.829Z,2.15
2023-01-15T04:22:16.369Z,1.98
2023-01-15T04:24:44.888Z,1.90
2023-01-15T04:27:13.573Z,2.00
2023-01-15T04:29:41.833Z,1.65
2023-01-15T04:32:10.426Z,2.00
2023-01-15T04:34:38.775Z,1.80
2023-01-15T04:37:07.412Z,1.90
2023-01-15T04:39:35.697Z,2.00
2023-01-15T04:42:22.610Z,1.90
2023-01-15T04:44:50.850Z,1.95
2023-01-15T04:47:19.707Z,1.65
2023-01-15T04:49:48.163Z,1.95
2023-01-15T04:52:17.390Z,1.92
2023-01-15T04:54:45.765Z,2.10
2023-01-15T04:57:14.395Z,2.00
2023-01-15T04:59:42.740Z,1.98
2023-01-15T05:05:24.120Z,2.13
2023-01-15T05:07:52.582Z,1.80
2023-01-15T05:10:21.360Z,2.10
2023-01-15T05:12:49.676Z,2.00
2023-01-15T05:15:18.333Z,2.00
2023-01-15T05:17:46.836Z,1.88
2023-01-15T05:20:16.078Z,2.05
2023-01-15T05:22:44.586Z,2.00
2023-01-15T05:25:13.329Z,2.13
2023-01-15T05:27:42.822Z,1.90
2023-01-15T05:30:14.588Z,2.08
2023-01-15T05:32:43.016Z,1.80
2023-01-15T05:35:12.140Z,1.80
2023-01-15T05:37:40.508Z,2.00
2023-01-15T05:40:09.720Z,2.00
2023-01-15T05:42:38.111Z,2.20
2023-01-15T05:45:07.464Z,2.20
2023-01-15T05:47:36.047Z,2.08
2023-01-15T05:50:05.028Z,2.20
2023-01-15T05:52:33.459Z,1.92
2023-01-15T05:55:02.281Z,2.17
2023-01-15T05:57:33.115Z,1.60
2023-01-15T06:00:01.931Z,2.15
2023-01-15T06:02:30.345Z,1.85
2023-01-15T06:04:59.082Z,2.20
2023-01-15T06:07:27.428Z,2.28
2023-01-15T06:09:56.341Z,1.50
2023-01-15T06:12:24.799Z,2.03
2023-01-15T06:14:53.961Z,2.45
2023-01-15T06:17:22.362Z,2.42
2023-01-15T06:19:51.032Z,2.05
2023-01-15T06:22:19.359Z,2.00
2023-01-15T06:24:48.128Z,2.42
2023-01-15T06:27:16.341Z,2.55
2023-01-15T06:29:44.962Z,2.17
2023-01-15T06:32:13.877Z,2.35
2023-01-15T06:34:44.665Z,2.40
2023-01-15T06:37:12.989Z,1.83
2023-01-15T06:39:41.503Z,2.72
2023-01-15T06:42:28.390Z,2.60
2023-01-15T06:45:15.360Z,1.98
2023-01-15T06:47:43.854Z,2.58
2023-01-15T06:50:37.702Z,2.50
2023-01-15T06:53:06.249Z,2.55
2023-01-15T06:55:38.303Z,2.88
2023-01-15T06:58:26.593Z,2.20
2023-01-15T07:00:56.835Z,2.35
2023-01-15T07:03:25.360Z,2.88
2023-01-15T07:05:54.106Z,2.80
2023-01-15T07:08:22.719Z,2.20
2023-01-15T07:10:51.647Z,2.70
2023-01-15T07:13:20.205Z,2.90
2023-01-15T07:15:49.026Z,3.25
2023-01-15T07:18:17.377Z,3.20
2023-01-15T07:20:46.465Z,3.00
2023-01-15T07:23:16.772Z,2.60
2023-01-15T07:25:45.555Z,2.45
2023-01-15T07:28:15.983Z,2.38
2023-01-15T07:30:44.714Z,2.30
2023-01-15T07:33:13.386Z,3.50
2023-01-15T07:35:42.463Z,2.15
2023-01-15T07:38:10.958Z,3.05
2023-01-15T07:40:39.811Z,3.00
2023-01-15T07:43:28.196Z,3.40
2023-01-15T07:46:18.384Z,2.97
2023-01-15T07:49:05.093Z,2.72
2023-01-15T07:51:33.651Z,3.30
2023-01-15T07:54:01.930Z,3.38
2023-01-15T07:56:30.951Z,3.17
2023-01-15T07:58:59.399Z,3.67
2023-01-15T08:01:28.031Z,3.45
2023-01-15T08:03:56.434Z,3.25
2023-01-15T08:06:25.044Z,3.58
2023-01-15T08:08:53.546Z,3.17
2023-01-15T08:11:40.632Z,4.10
2023-01-15T08:14:29.523Z,3.28
2023-01-15T08:16:58.377Z,3.55
2023-01-15T08:19:32.336Z,3.83
2023-01-15T08:22:04.998Z,4.28
2023-01-15T08:24:33.453Z,4.18
2023-01-15T08:35:27.068Z,3.17
2023-01-15T08:37:59.616Z,4.20
2023-01-15T08:40:42.368Z,4.30
2023-01-15T08:43:16.734Z,4.80
2023-01-15T08:49:17.808Z,5.13
2023-01-15T08:52:50.066Z,4.13
2023-01-15T08:58:52.862Z,5.88
2023-01-15T09:01:21.590Z,5.43
2023-01-15T09:03:50.258Z,6.32
2023-01-15T09:06:18.630Z,5.68
2023-01-15T09:08:47.268Z,5.50
2023-01-15T09:11:15.558Z,6.47
2023-01-15T09:13:46.458Z,7.20
2023-01-15T09:16:17.535Z,5.88
2023-01-15T09:18:48.378Z,5.53
2023-01-15T09:21:20.185Z,6.13
2023-01-15T09:23:57.030Z,5.45
2023-01-15T09:26:34.781Z,5.80
2023-01-15T09:29:10.725Z,5.75
2023-01-15T09:31:39.153Z,5.50
2023-01-15T09:35:19.889Z,5.70
2023-01-15T09:38:16.102Z,5.70
2023-01-15T09:42:26.007Z,5.18
2023-01-15T09:46:19.998Z,2.72
2023-01-15T09:49:36.977Z,4.72
2023-01-15T09:52:50.842Z,4.00
2023-01-15T09:55:27.654Z,5.32
2023-01-15T09:58:40.734Z,3.90
2023-01-15T10:01:43.278Z,3.92
2023-01-15T10:09:10.486Z,3.88
2023-01-15T10:16:26.237Z,3.38
2023-01-15T10:19:20.195Z,2.80
2023-01-15T10:22:04.958Z,3.92
2023-01-15T10:24:51.468Z,3.65
2023-01-15T10:27:28.375Z,3.38
2023-01-15T10:30:39.986Z,1.10
2023-01-15T10:33:43.291Z,1.63
2023-01-15T10:36:22.361Z,0.95
2023-01-15T10:39:21.327Z,1.48
2023-01-15T10:42:26.679Z,0.95
2023-01-15T10:45:51.779Z,3.30
2023-01-15T10:52:44.705Z,0.80
2023-01-15T10:56:16.557Z,1.90
2023-01-15T11:19:45.948Z,5.07
2023-01-15T12:18:05.237Z,3.30
2023-01-15T12:21:57.914Z,2.35
2023-01-15T12:25:03.594Z,3.47
2023-01-15T12:32:00.974Z,3.50
2023-01-15T12:35:14.075Z,2.70
2023-01-15T12:43:35.753Z,4.47
2023-01-15T12:50:42.637Z,1.80
2023-01-15T12:59:03.693Z,3.00
2023-01-15T13:02:33.602Z,2.65
2023-01-15T13:06:05.384Z,3.75
2023-01-15T13:23:43.758Z,1.80
2023-01-15T13:26:56.355Z,1.88
2023-01-15T13:29:46.072Z,1.55
2023-01-15T13:32:20.068Z,1.30
2023-01-15T13:35:32.263Z,1.95
2023-01-15T13:38:06.352Z,2.42
2023-01-15T13:40:50.597Z,2.20
2023-01-15T13:43:48.839Z,1.70
2023-01-15T13:46:56.758Z,1.63
2023-01-15T13:50:42.721Z,2.15
2023-01-15T13:57:25.044Z,1.87
2023-01-15T14:00:57.340Z,2.20
2023-01-15T14:06:57.087Z,3.00
2023-01-15T14:12:42.885Z,3.40
2023-01-15T14:15:28.209Z,5.15
2023-01-15T14:18:12.709Z,5.43
2023-01-15T14:21:26.825Z,7.30
2023-01-15T14:24:35.731Z,4.65
2023-01-15T14:27:55.148Z,8.52
2023-01-15T14:31:21.994Z,5.97
2023-01-15T14:33:56.460Z,8.45
2023-01-15T14:36:34.552Z,4.75
2023-01-15T14:39:31.494Z,3.38
2023-01-15T14:43:12.168Z,3.38
2023-01-15T14:51:03.496Z,2.40
2023-01-15T14:54:53.701Z,2.90
2023-01-15T15:08:35.885Z,5.18
2023-01-15T15:14:28.527Z,4.60
2023-01-15T15:17:30.808Z,4.85
2023-01-15T15:20:31.659Z,4.63
2023-01-15T15:24:12.801Z,4.30
2023-01-15T15:26:52.733Z,5.18
2023-01-15T15:29:31.087Z,3.80
2023-01-15T15:49:08.255Z,3.90
2023-01-15T15:51:51.690Z,4.68
2023-01-15T15:54:50.038Z,4.80
2023-01-15T15:57:43.094Z,5.00
2023-01-15T16:00:46.730Z,3.60
2023-01-15T16:03:50.157Z,3.13
2023-01-15T16:09:15.365Z,4.88
2023-01-15T16:14:17.455Z,5.72
2023-01-15T16:16:48.242Z,5.97
2023-01-15T16:19:21.991Z,4.80
2023-01-15T16:21:59.235Z,6.75
2023-01-15T16:24:58.496Z,5.15
2023-01-15T16:27:36.751Z,5.80
2023-01-15T16:30:14.856Z,4.60
2023-01-15T16:32:50.651Z,5.30
2023-01-15T16:35:25.110Z,4.97
2023-01-15T16:38:04.471Z,5.07
2023-01-15T16:40:39.843Z,3.22
2023-01-15T16:43:22.314Z,5.28
2023-01-15T16:45:56.790Z,5.03
2023-01-15T16:48:57.911Z,4.22
2023-01-15T16:51:47.739Z,4.43
2023-01-15T16:54:42.418Z,4.75
2023-01-15T17:02:00.224Z,3.92
2023-01-15T17:04:54.513Z,4.28
2023-01-15T17:07:52.682Z,5.25
2023-01-15T17:10:32.665Z,7.97
2023-01-15T17:13:10.357Z,6.15
2023-01-15T17:15:52.362Z,6.32
2023-01-15T17:18:34.419Z,5.43
2023-01-15T17:21:03.252Z,4.82
2023-01-15T17:24:12.942Z,3.47
2023-01-15T17:26:49.557Z,4.40
2023-01-15T17:34:22.602Z,5.35
2023-01-15T17:37:09.643Z,4.45
2023-01-15T17:40:35.682Z,4.32
2023-01-15T17:46:34.951Z,4.22
2023-01-15T17:49:32.035Z,4.20
2023-01-15T17:52:36.357Z,4.03
2023-01-15T17:55:48.992Z,3.10
2023-01-15T18:03:14.991Z,3.92
2023-01-15T18:05:56.945Z,3.95
2023-01-15T18:08:37.493Z,4.40
2023-01-15T18:11:38.556Z,4.13
2023-01-15T18:14:17.052Z,5.10
2023-01-15T18:16:57.003Z,4.40
2023-01-15T18:26:27.910Z,4.13
2023-01-15T18:29:05.774Z,4.93
2023-01-15T18:31:55.366Z,4.45
2023-01-15T18:34:30.225Z,4.13
2023-01-15T18:36:58.968Z,4.78
2023-01-15T18:39:59.091Z,5.10
2023-01-15T18:45:49.458Z,4.40
2023-01-15T18:48:29.351Z,5.82
2023-01-15T18:51:10.126Z,3.28
2023-01-15T18:53:55.181Z,4.32
2023-01-15T18:59:49.098Z,5.93
2023-01-15T19:02:49.309Z,3.33
2023-01-15T19:05:23.440Z,4.10
2023-01-15T19:08:08.371Z,4.22
2023-01-15T19:11:59.453Z,3.97
2023-01-15T19:15:17.305Z,4.13
2023-01-15T19:18:16.731Z,4.85
2023-01-15T19:21:00.124Z,3.53
2023-01-15T19:28:28.716Z,5.60
2023-01-15T19:31:38.608Z,4.03
2023-01-15T19:34:58.747Z,2.95
2023-01-15T19:38:09.874Z,4.35
2023-01-15T19:49:22.614Z,2.78
2023-01-15T19:55:33.187Z,3.72
2023-01-15T19:58:20.000Z,3.70
2023-01-15T20:01:52.507Z,3.42
2023-01-15T20:09:31.749Z,3.88
2023-01-15T20:12:56.451Z,3.22
2023-01-15T20:15:31.661Z,3.83
2023-01-15T20:18:07.108Z,2.60
2023-01-15T20:20:42.890Z,2.33
2023-01-15T20:27:07.640Z,2.95
2023-01-15T20:34:36.087Z,3.28
2023-01-15T20:37:08.175Z,3.20
2023-01-15T20:39:52.674Z,3.28
2023-01-15T20:43:01.358Z,3.50
2023-01-15T20:45:33.106Z,2.60
2023-01-15T20:58:57.002Z,3.58
2023-01-15T21:01:27.086Z,2.90
2023-01-15T21:04:21.633Z,3.13
2023-01-15T21:07:04.150Z,2.85
2023-01-15T21:09:32.819Z,2.10
2023-01-15T21:12:26.580Z,2.50
2023-01-15T21:14:55.596Z,2.03
2023-01-15T21:17:27.947Z,3.42
2023-01-15T21:20:15.734Z,2.78
2023-01-15T21:22:46.334Z,2.92
2023-01-15T21:25:39.429Z,2.63
2023-01-15T21:28:18.020Z,2.30
2023-01-15T21:31:12.435Z,2.10
2023-01-15T21:34:30.964Z,2.58
2023-01-15T21:37:45.779Z,2.55
2023-01-15T21:40:41.261Z,2.60
2023-01-15T21:46:55.656Z,2.40
2023-01-15T21:49:50.812Z,1.45
2023-01-15T21:52:52.810Z,2.28
2023-01-15T21:55:26.185Z,1.85
2023-01-15T21:58:20.631Z,2.05
2023-01-15T22:00:58.522Z,2.05
2023-01-15T22:03:29.028Z,2.30
2023-01-15T22:06:09.217Z,1.98
2023-01-15T22:09:01.470Z,2.08
2023-01-15T22:11:48.505Z,2.15
2023-01-15T22:14:23.868Z,1.73
2023-01-15T22:16:58.326Z,2.13
2023-01-15T22:19:37.010Z,1.52
2023-01-15T22:22:09.423Z,2.25
2023-01-15T22:24:40.315Z,1.77
2023-01-15T22:27:15.304Z,1.85
2023-01-15T22:30:07.952Z,2.00
2023-01-15T22:32:36.459Z,1.83
2023-01-15T22:35:06.410Z,1.67
2023-01-15T22:37:34.849Z,1.30
2023-01-15T22:40:12.616Z,1.65
2023-01-15T22:42:43.974Z,2.15
2023-01-15T22:45:13.904Z,1.27
2023-01-15T22:47:42.236Z,1.70
2023-01-15T22:50:11.426Z,1.20
2023-01-15T22:52:40.775Z,1.75
2023-01-15T22:55:15.127Z,2.05
2023-01-15T22:57:44.577Z,1.73
2023-01-15T23:00:37.399Z,1.88
2023-01-15T23:03:05.923Z,1.38
2023-01-15T23:05:39.316Z,1.90
2023-01-15T23:08:10.828Z,1.83
2023-01-15T23:10:46.357Z,1.50
2023-01-15T23:13:26.037Z,1.45
2023-01-15T23:16:06.180Z,1.77
2023-01-15T23:18:35.007Z,1.30
2023-01-15T23:21:12.081Z,1.50
2023-01-15T23:23:42.170Z,1.60
2023-01-15T23:26:17.192Z,1.40
2023-01-15T23:28:56.442Z,1.10
2023-01-15T23:31:27.493Z,1.38
2023-01-15T23:33:56.302Z,1.60
2023-01-15T23:36:25.347Z,1.15
2023-01-15T23:38:53.956Z,1.58
2023-01-15T23:41:44.308Z,1.52
2023-01-15T23:44:37.698Z,1.63
2023-01-15T23:47:08.302Z,1.30
2023-01-15T23:49:37.000Z,1.77
2023-01-15T23:52:09.055Z,1.70
2023-01-15T23:59:30.625Z,1.48
